createdAt,value
2018-11-11T00:00:53.599Z,94808.00
2018-11-11T00:03:23.678Z,94811.00
2018-11-11T00:05:53.709Z,94830.00
2018-11-11T00:08:23.590Z,94824.00
2018-11-11T00:10:53.730Z,94822.00
2018-11-11T00:13:24.894Z,94813.00
2018-11-11T00:15:54.121Z,94826.00
2018-11-11T00:18:23.751Z,94830.00
2018-11-11T00:20:53.771Z,94833.00
2018-11-11T00:23:23.794Z,94809.00
2018-11-11T00:25:53.658Z,94823.00
2018-11-11T00:28:23.851Z,94823.00
2018-11-11T00:30:53.959Z,94820.00
2018-11-11T00:33:23.915Z,94822.00
2018-11-11T00:35:53.935Z,94827.00
2018-11-11T00:38:23.982Z,94829.00
2018-11-11T00:40:54.057Z,94835.00
2018-11-11T00:43:24.062Z,94840.00
2018-11-11T00:45:55.041Z,94839.00
2018-11-11T00:48:24.266Z,94837.00
2018-11-11T00:50:54.122Z,94837.00
2018-11-11T00:53:24.062Z,94844.00
2018-11-11T00:55:54.203Z,94847.00
2018-11-11T00:58:24.161Z,94864.00
2018-11-11T01:00:54.091Z,94868.00
2018-11-11T01:03:24.165Z,94867.00
2018-11-11T01:05:54.281Z,94863.00
2018-11-11T01:08:24.230Z,94863.00
2018-11-11T01:10:54.226Z,94867.00
2018-11-11T01:13:24.226Z,94864.00
2018-11-11T01:15:54.322Z,94869.00
2018-11-11T01:18:24.363Z,94861.00
2018-11-11T01:20:54.415Z,94866.00
2018-11-11T01:23:24.319Z,94877.00
2018-11-11T01:25:54.373Z,94875.00
2018-11-11T01:28:24.351Z,94890.00
2018-11-11T01:30:54.673Z,94879.00
2018-11-11T01:33:24.519Z,94879.00
2018-11-11T01:35:54.602Z,94873.00
2018-11-11T01:38:24.543Z,94883.00
2018-11-11T01:40:54.888Z,94894.00
2018-11-11T01:43:24.602Z,94901.00
2018-11-11T01:45:54.629Z,94890.00
2018-11-11T01:48:24.642Z,94898.00
2018-11-11T01:50:54.710Z,94907.00
2018-11-11T01:53:24.722Z,94909.00
2018-11-11T01:55:54.722Z,94910.00
2018-11-11T01:58:24.741Z,94901.00
2018-11-11T02:00:54.821Z,94899.00
2018-11-11T02:03:24.849Z,94894.00
2018-11-11T02:05:54.889Z,94903.00
2018-11-11T02:08:24.829Z,94909.00
2018-11-11T02:10:54.783Z,94918.00
2018-11-11T02:13:24.931Z,94912.00
2018-11-11T02:15:54.977Z,94920.00
2018-11-11T02:18:24.914Z,94931.00
2018-11-11T02:20:55.051Z,94939.00
2018-11-11T02:23:24.941Z,94960.00
2018-11-11T02:25:55.043Z,94965.00
2018-11-11T02:28:25.006Z,94959.00
2018-11-11T02:30:55.114Z,94964.00
2018-11-11T02:33:25.213Z,94978.00
2018-11-11T02:35:55.054Z,94975.00
2018-11-11T02:38:25.030Z,94997.00
2018-11-11T02:40:55.134Z,94981.00
2018-11-11T02:43:25.075Z,94972.00
2018-11-11T02:45:55.218Z,94968.00
2018-11-11T02:48:25.315Z,94977.00
2018-11-11T02:50:55.193Z,94985.00
2018-11-11T02:53:25.187Z,94990.00
2018-11-11T02:55:55.255Z,94997.00
2018-11-11T02:58:25.277Z,94998.00
2018-11-11T03:00:55.345Z,94987.00
2018-11-11T03:03:25.207Z,94990.00
2018-11-11T03:05:55.284Z,94989.00
2018-11-11T03:08:25.376Z,95000.00
2018-11-11T03:10:55.479Z,94992.00
2018-11-11T03:13:25.441Z,94990.00
2018-11-11T03:15:54.662Z,94998.00
2018-11-11T03:18:23.733Z,94992.00
2018-11-11T03:20:52.915Z,95009.00
2018-11-11T03:23:22.118Z,95011.00
2018-11-11T03:25:51.459Z,95018.00
2018-11-11T03:28:20.635Z,95015.00
2018-11-11T03:30:49.819Z,95014.00
2018-11-11T03:33:18.982Z,95012.00
2018-11-11T03:35:48.159Z,95030.00
2018-11-11T03:38:17.239Z,95037.00
2018-11-11T03:40:46.389Z,95032.00
2018-11-11T03:43:17.821Z,95029.00
2018-11-11T03:45:46.959Z,95017.00
2018-11-11T03:48:16.175Z,95025.00
2018-11-11T03:50:45.399Z,95025.00
2018-11-11T03:53:14.641Z,95026.00
2018-11-11T03:55:43.855Z,95029.00
2018-11-11T03:58:13.081Z,95025.00
2018-11-11T04:00:42.208Z,95019.00
2018-11-11T04:03:11.372Z,95017.00
2018-11-11T04:05:40.442Z,95014.00
2018-11-11T04:08:09.624Z,95010.00
2018-11-11T04:10:38.872Z,95021.00
2018-11-11T04:13:08.008Z,95020.00
2018-11-11T04:15:37.245Z,95028.00
2018-11-11T04:18:06.829Z,95038.00
2018-11-11T04:20:36.063Z,95030.00
2018-11-11T04:23:05.278Z,95043.00
2018-11-11T04:25:34.457Z,95062.00
2018-11-11T04:28:03.720Z,95060.00
2018-11-11T04:30:33.651Z,95071.00
2018-11-11T04:33:02.770Z,95066.00
2018-11-11T04:35:31.970Z,95066.00
2018-11-11T04:38:01.154Z,95050.00
2018-11-11T04:40:30.374Z,95063.00
2018-11-11T04:42:59.567Z,95062.00
2018-11-11T04:45:28.797Z,95059.00
2018-11-11T04:47:57.989Z,95062.00
2018-11-11T04:50:28.236Z,95055.00
2018-11-11T04:52:57.417Z,95049.00
2018-11-11T04:55:28.666Z,95050.00
2018-11-11T04:57:57.825Z,95046.00
2018-11-11T05:00:27.055Z,95042.00
2018-11-11T05:02:56.556Z,95039.00
2018-11-11T05:05:26.500Z,95026.00
2018-11-11T05:07:56.468Z,95021.00
2018-11-11T05:10:26.522Z,95009.00
2018-11-11T05:12:56.679Z,95007.00
2018-11-11T05:15:26.611Z,94989.00
2018-11-11T05:17:56.702Z,94985.00
2018-11-11T05:20:26.722Z,94955.00
2018-11-11T05:22:56.610Z,94949.00
2018-11-11T05:25:26.664Z,94947.00
2018-11-11T05:27:59.288Z,94949.00
2018-11-11T05:30:28.538Z,94951.00
2018-11-11T05:32:57.769Z,94922.00
2018-11-11T05:35:26.934Z,94960.00
2018-11-11T05:37:56.782Z,94968.00
2018-11-11T05:40:26.874Z,94977.00
2018-11-11T05:42:56.871Z,95002.00
2018-11-11T05:45:26.907Z,95012.00
2018-11-11T05:47:56.899Z,95033.00
2018-11-11T05:50:26.874Z,95047.00
2018-11-11T05:52:56.995Z,95055.00
2018-11-11T05:55:26.945Z,95045.00
2018-11-11T05:57:56.934Z,95044.00
2018-11-11T06:00:27.054Z,95060.00
2018-11-11T06:02:57.033Z,95061.00
2018-11-11T06:05:28.059Z,95067.00
2018-11-11T06:07:57.218Z,95062.00
2018-11-11T06:10:27.084Z,95061.00
2018-11-11T06:12:57.068Z,95070.00
2018-11-11T06:15:28.216Z,95068.00
2018-11-11T06:17:57.436Z,95082.00
2018-11-11T06:20:28.273Z,95073.00
2018-11-11T06:22:57.345Z,95055.00
2018-11-11T06:25:28.390Z,95065.00
2018-11-11T06:27:57.590Z,95074.00
2018-11-11T06:30:28.392Z,95099.00
2018-11-11T06:32:57.562Z,95079.00
2018-11-11T06:35:30.321Z,95096.00
2018-11-11T06:37:59.455Z,95077.00
2018-11-11T06:40:28.647Z,95060.00
2018-11-11T06:42:57.855Z,95056.00
2018-11-11T06:45:28.554Z,95050.00
2018-11-11T06:47:57.736Z,95065.00
2018-11-11T06:50:28.589Z,95071.00
2018-11-11T06:52:57.762Z,95080.00
2018-11-11T06:55:28.403Z,95083.00
2018-11-11T06:57:57.647Z,95090.00
2018-11-11T07:00:28.616Z,95084.00
2018-11-11T07:03:14.766Z,95085.00
2018-11-11T07:05:44.018Z,95083.00
2018-11-11T07:08:13.039Z,95070.00
2018-11-11T07:10:42.252Z,95051.00
2018-11-11T07:13:11.449Z,95048.00
2018-11-11T07:15:40.752Z,95022.00
2018-11-11T07:18:09.870Z,95032.00
2018-11-11T07:20:38.962Z,95053.00
2018-11-11T07:23:08.144Z,95058.00
2018-11-11T07:25:37.366Z,95073.00
2018-11-11T07:28:06.754Z,95061.00
2018-11-11T07:30:36.006Z,95067.00
2018-11-11T07:33:05.337Z,95065.00
2018-11-11T07:35:34.544Z,95067.00
2018-11-11T07:38:03.754Z,95082.00
2018-11-11T07:40:32.990Z,95093.00
2018-11-11T07:43:02.278Z,95108.00
2018-11-11T07:45:31.460Z,95096.00
2018-11-11T07:48:00.655Z,95103.00
2018-11-11T07:50:29.819Z,95090.00
2018-11-11T07:52:59.153Z,95091.00
2018-11-11T07:55:29.222Z,95101.00
2018-11-11T07:57:58.506Z,95105.00
2018-11-11T08:00:27.723Z,95126.00
2018-11-11T08:02:57.971Z,95107.00
2018-11-11T08:05:27.581Z,95118.00
2018-11-11T08:07:56.754Z,95135.00
2018-11-11T08:10:43.126Z,95135.00
2018-11-11T08:13:12.202Z,95124.00
2018-11-11T08:15:41.318Z,95133.00
2018-11-11T08:18:10.507Z,95127.00
2018-11-11T08:20:39.750Z,95144.00
2018-11-11T08:23:09.001Z,95153.00
2018-11-11T08:25:38.157Z,95164.00
2018-11-11T08:28:07.249Z,95185.00
2018-11-11T08:30:36.471Z,95167.00
2018-11-11T08:33:05.607Z,95176.00
2018-11-11T08:35:34.740Z,95175.00
2018-11-11T08:38:04.414Z,95203.00
2018-11-11T08:40:33.586Z,95207.00
2018-11-11T08:43:02.612Z,95203.00
2018-11-11T08:45:33.244Z,95214.00
2018-11-11T08:48:02.428Z,95236.00
2018-11-11T08:50:31.586Z,95238.00
2018-11-11T08:53:00.732Z,95239.00
2018-11-11T08:55:29.930Z,95229.00
2018-11-11T08:57:59.147Z,95242.00
2018-11-11T09:00:28.728Z,95240.00
2018-11-11T09:02:58.789Z,95214.00
2018-11-11T09:05:28.704Z,95221.00
2018-11-11T09:07:58.730Z,95227.00
2018-11-11T09:10:28.775Z,95213.00
2018-11-11T09:12:58.721Z,95193.00
2018-11-11T09:15:28.864Z,95203.00
2018-11-11T09:17:58.830Z,95202.00
2018-11-11T09:20:28.821Z,95193.00
2018-11-11T09:22:58.942Z,95192.00
2018-11-11T09:25:28.976Z,95189.00
2018-11-11T09:27:58.960Z,95174.00
2018-11-11T09:30:28.994Z,95192.00
2018-11-11T09:32:59.243Z,95198.00
2018-11-11T09:35:29.422Z,95206.00
2018-11-11T09:37:59.439Z,95211.00
2018-11-11T09:40:29.498Z,95236.00
2018-11-11T09:42:59.499Z,95247.00
2018-11-11T09:45:29.518Z,95254.00
2018-11-11T09:47:59.545Z,95259.00
2018-11-11T09:50:29.574Z,95263.00
2018-11-11T09:52:59.657Z,95260.00
2018-11-11T09:55:29.492Z,95278.00
2018-11-11T09:57:59.691Z,95283.00
2018-11-11T10:00:29.629Z,95280.00
2018-11-11T10:03:02.634Z,95285.00
2018-11-11T10:05:40.938Z,95309.00
2018-11-11T10:08:29.371Z,95309.00
2018-11-11T10:11:04.622Z,95283.00
2018-11-11T10:13:41.186Z,95273.00
2018-11-11T10:16:15.499Z,95258.00
2018-11-11T10:18:51.990Z,95275.00
2018-11-11T10:21:28.693Z,95303.00
2018-11-11T10:25:05.580Z,95334.00
2018-11-11T10:28:38.626Z,95327.00
2018-11-11T10:31:18.986Z,95330.00
2018-11-11T10:34:22.714Z,95323.00
2018-11-11T10:36:56.723Z,95329.00
2018-11-11T10:39:30.895Z,95329.00
2018-11-11T10:42:04.590Z,95334.00
2018-11-11T10:44:41.277Z,95312.00
2018-11-11T10:47:15.126Z,95314.00
2018-11-11T10:49:48.540Z,95298.00
2018-11-11T10:52:17.748Z,95308.00
2018-11-11T10:54:46.977Z,95299.00
2018-11-11T10:57:16.206Z,95308.00
2018-11-11T10:59:45.546Z,95296.00
2018-11-11T11:02:18.262Z,95294.00
2018-11-11T11:04:53.031Z,95302.00
2018-11-11T11:07:22.131Z,95312.00
2018-11-11T11:09:51.291Z,95303.00
2018-11-11T11:12:20.386Z,95313.00
2018-11-11T11:14:50.765Z,95306.00
2018-11-11T11:17:19.915Z,95300.00
2018-11-11T11:19:49.108Z,95283.00
2018-11-11T11:22:18.301Z,95282.00
2018-11-11T11:24:47.610Z,95280.00
2018-11-11T11:27:16.763Z,95279.00
2018-11-11T11:29:45.915Z,95293.00
2018-11-11T11:32:15.142Z,95291.00
2018-11-11T11:34:44.176Z,95286.00
2018-11-11T11:37:15.195Z,95285.00
2018-11-11T11:39:44.396Z,95290.00
2018-11-11T11:42:13.616Z,95283.00
2018-11-11T11:44:42.827Z,95291.00
2018-11-11T11:47:12.009Z,95291.00
2018-11-11T11:49:41.153Z,95280.00
2018-11-11T11:52:10.312Z,95271.00
2018-11-11T11:54:39.479Z,95268.00
2018-11-11T11:57:08.690Z,95262.00
2018-11-11T11:59:37.854Z,95259.00
2018-11-11T12:02:07.124Z,95254.00
2018-11-11T12:04:36.276Z,95249.00
2018-11-11T12:07:05.506Z,95250.00
2018-11-11T12:09:34.696Z,95254.00
2018-11-11T12:12:03.834Z,95259.00
2018-11-11T12:14:33.011Z,95257.00
2018-11-11T12:17:02.265Z,95274.00
2018-11-11T12:19:33.288Z,95272.00
2018-11-11T12:22:02.580Z,95275.00
2018-11-11T12:24:31.906Z,95267.00
2018-11-11T12:27:01.522Z,95254.00
2018-11-11T12:29:31.410Z,95257.00
2018-11-11T12:32:01.394Z,95270.00
2018-11-11T12:34:31.522Z,95265.00
2018-11-11T12:41:58.755Z,95255.00
2018-11-11T12:44:27.984Z,95248.00
2018-11-11T12:46:57.160Z,95248.00
2018-11-11T12:49:27.363Z,95255.00
2018-11-11T12:51:56.486Z,95248.00
2018-11-11T12:54:25.669Z,95250.00
2018-11-11T12:56:54.848Z,95240.00
2018-11-11T12:59:24.092Z,95228.00
2018-11-11T13:01:53.408Z,95230.00
2018-11-11T13:04:22.558Z,95218.00
2018-11-11T13:06:51.782Z,95220.00
2018-11-11T13:09:20.869Z,95223.00
2018-11-11T13:11:50.089Z,95220.00
2018-11-11T13:14:19.226Z,95236.00
2018-11-11T13:16:48.400Z,95241.00
2018-11-11T13:19:17.605Z,95242.00
2018-11-11T13:21:46.692Z,95245.00
2018-11-11T13:24:15.819Z,95248.00
2018-11-11T13:26:45.026Z,95256.00
2018-11-11T13:29:14.210Z,95247.00
2018-11-11T13:31:43.571Z,95248.00
2018-11-11T13:34:12.682Z,95248.00
2018-11-11T13:36:41.833Z,95242.00
2018-11-11T13:39:13.752Z,95252.00
2018-11-11T13:41:43.715Z,95260.00
2018-11-11T13:44:12.966Z,95253.00
2018-11-11T13:46:42.340Z,95250.00
2018-11-11T13:49:11.403Z,95265.00
2018-11-11T13:51:40.648Z,95266.00
2018-11-11T13:54:09.710Z,95260.00
2018-11-11T13:56:39.125Z,95261.00
2018-11-11T13:59:08.262Z,95260.00
2018-11-11T14:01:37.533Z,95267.00
2018-11-11T14:04:06.634Z,95269.00
2018-11-11T14:06:35.821Z,95287.00
2018-11-11T14:09:09.078Z,95296.00
2018-11-11T14:11:38.414Z,95296.00
2018-11-11T14:14:08.133Z,95293.00
2018-11-11T14:16:37.527Z,95287.00
2018-11-11T14:19:07.690Z,95290.00
2018-11-11T14:21:36.385Z,95302.00
2018-11-11T14:24:05.578Z,95300.00
2018-11-11T14:26:34.892Z,95299.00
2018-11-11T14:29:03.860Z,95294.00
2018-11-11T14:31:33.128Z,95302.00
2018-11-11T14:34:03.178Z,95294.00
2018-11-11T14:36:33.261Z,95295.00
2018-11-11T14:39:03.214Z,95293.00
2018-11-11T14:41:33.204Z,95291.00
2018-11-11T14:44:03.371Z,95286.00
2018-11-11T14:46:33.150Z,95283.00
2018-11-11T14:49:03.483Z,95288.00
2018-11-11T14:51:33.454Z,95295.00
2018-11-11T14:54:03.443Z,95291.00
2018-11-11T14:56:33.404Z,95292.00
2018-11-11T14:59:03.458Z,95290.00
2018-11-11T15:01:33.579Z,95292.00
2018-11-11T15:04:03.493Z,95298.00
2018-11-11T15:06:33.617Z,95306.00
2018-11-11T15:09:04.582Z,95303.00
2018-11-11T15:11:33.719Z,95305.00
2018-11-11T15:14:03.606Z,95305.00
2018-11-11T15:16:33.606Z,95307.00
2018-11-11T15:19:03.979Z,95310.00
2018-11-11T15:21:33.890Z,95320.00
2018-11-11T15:24:03.879Z,95316.00
2018-11-11T15:26:33.832Z,95317.00
2018-11-11T15:29:04.825Z,95325.00
2018-11-11T15:31:34.035Z,95320.00
2018-11-11T15:34:03.833Z,95318.00
2018-11-11T15:36:33.919Z,95322.00
2018-11-11T15:39:05.374Z,95324.00
2018-11-11T15:41:34.634Z,95326.00
2018-11-11T15:44:04.048Z,95335.00
2018-11-11T15:46:34.031Z,95331.00
2018-11-11T15:49:04.246Z,95341.00
2018-11-11T15:51:38.282Z,95343.00
2018-11-11T15:54:07.390Z,95338.00
2018-11-11T15:56:36.442Z,95345.00
2018-11-11T15:59:05.662Z,95337.00
2018-11-11T16:01:34.806Z,95346.00
2018-11-11T16:04:04.257Z,95349.00
2018-11-11T16:06:34.330Z,95342.00
2018-11-11T16:09:05.306Z,95340.00
2018-11-11T16:11:34.452Z,95325.00
2018-11-11T16:14:04.343Z,95326.00
2018-11-11T16:16:34.330Z,95330.00
2018-11-11T16:19:04.387Z,95335.00
2018-11-11T16:21:34.382Z,95330.00
2018-11-11T16:24:04.608Z,95334.00
2018-11-11T16:26:34.906Z,95337.00
2018-11-11T16:29:04.933Z,95329.00
2018-11-11T16:31:34.975Z,95327.00
2018-11-11T16:34:06.503Z,95325.00
2018-11-11T16:36:35.825Z,95316.00
2018-11-11T16:39:07.598Z,95321.00
2018-11-11T16:41:36.772Z,95318.00
2018-11-11T16:44:06.078Z,95311.00
2018-11-11T16:46:35.320Z,95309.00
2018-11-11T16:49:05.439Z,95303.00
2018-11-11T16:51:35.394Z,95293.00
2018-11-11T16:54:05.848Z,95289.00
2018-11-11T16:56:35.512Z,95294.00
2018-11-11T16:59:05.750Z,95310.00
2018-11-11T17:01:35.470Z,95319.00
2018-11-11T17:04:05.638Z,95329.00
2018-11-11T17:06:35.482Z,95325.00
2018-11-11T17:09:11.139Z,95326.00
2018-11-11T17:11:40.470Z,95313.00
2018-11-11T17:14:09.821Z,95312.00
2018-11-11T17:16:38.991Z,95297.00
2018-11-11T17:19:08.215Z,95293.00
2018-11-11T17:21:37.463Z,95291.00
2018-11-11T17:24:07.030Z,95293.00
2018-11-11T17:26:37.227Z,95293.00
2018-11-11T17:29:06.423Z,95301.00
2018-11-11T17:31:35.841Z,95317.00
2018-11-11T17:34:06.292Z,95317.00
2018-11-11T17:36:35.856Z,95329.00
2018-11-11T17:39:10.008Z,95321.00
2018-11-11T17:41:39.587Z,95320.00
2018-11-11T17:44:08.658Z,95332.00
2018-11-11T17:46:37.805Z,95342.00
2018-11-11T17:49:08.243Z,95350.00
2018-11-11T17:51:37.518Z,95356.00
2018-11-11T17:54:06.855Z,95358.00
2018-11-11T17:56:36.295Z,95376.00
2018-11-11T17:59:06.749Z,95392.00
2018-11-11T18:01:36.239Z,95389.00
2018-11-11T18:04:07.582Z,95398.00
2018-11-11T18:06:36.873Z,95411.00
2018-11-11T18:09:09.459Z,95425.00
2018-11-11T18:11:39.107Z,95420.00
2018-11-11T18:14:08.582Z,95414.00
2018-11-11T18:16:37.726Z,95422.00
2018-11-11T18:19:06.867Z,95426.00
2018-11-11T18:21:36.462Z,95422.00
2018-11-11T18:24:06.857Z,95429.00
2018-11-11T18:26:37.826Z,95434.00
2018-11-11T18:29:07.058Z,95418.00
2018-11-11T18:31:36.245Z,95418.00
2018-11-11T18:34:06.706Z,95423.00
2018-11-11T18:36:36.752Z,95418.00
2018-11-11T18:39:10.243Z,95416.00
2018-11-11T18:41:39.365Z,95417.00
2018-11-11T18:44:08.514Z,95420.00
2018-11-11T18:46:38.172Z,95430.00
2018-11-11T18:49:07.262Z,95423.00
2018-11-11T18:51:37.043Z,95419.00
2018-11-11T18:54:07.139Z,95421.00
2018-11-11T18:56:37.178Z,95429.00
2018-11-11T18:59:07.073Z,95438.00
2018-11-11T19:01:37.144Z,95435.00
2018-11-11T19:04:07.426Z,95425.00
2018-11-11T19:06:37.381Z,95441.00
2018-11-11T19:09:11.603Z,95443.00
2018-11-11T19:11:40.944Z,95442.00
2018-11-11T19:14:10.143Z,95432.00
2018-11-11T19:16:39.565Z,95428.00
2018-11-11T19:19:08.786Z,95430.00
2018-11-11T19:21:38.110Z,95422.00
2018-11-11T19:24:07.523Z,95439.00
2018-11-11T19:26:37.538Z,95434.00
2018-11-11T19:29:07.561Z,95417.00
2018-11-11T19:31:37.656Z,95424.00
2018-11-11T19:34:07.658Z,95426.00
2018-11-11T19:36:38.748Z,95423.00
2018-11-11T19:39:11.111Z,95417.00
2018-11-11T19:41:41.088Z,95405.00
2018-11-11T19:44:10.574Z,95413.00
2018-11-11T19:46:39.809Z,95415.00
2018-11-11T19:49:08.990Z,95430.00
2018-11-11T19:51:38.259Z,95434.00
2018-11-11T19:54:08.004Z,95439.00
2018-11-11T19:56:38.079Z,95451.00
2018-11-11T19:59:08.167Z,95471.00
2018-11-11T20:01:37.431Z,95474.00
2018-11-11T20:04:07.418Z,95476.00
2018-11-11T20:06:36.650Z,95459.00
2018-11-11T20:09:10.379Z,95463.00
2018-11-11T20:11:39.519Z,95465.00
2018-11-11T20:14:08.882Z,95468.00
2018-11-11T20:16:38.813Z,95467.00
2018-11-11T20:19:08.399Z,95478.00
2018-11-11T20:21:38.542Z,95469.00
2018-11-11T20:24:08.474Z,95471.00
2018-11-11T20:26:37.585Z,95465.00
2018-11-11T20:29:06.999Z,95458.00
2018-11-11T20:31:36.297Z,95464.00
2018-11-11T20:34:05.740Z,95463.00
2018-11-11T20:36:34.866Z,95479.00
2018-11-11T20:39:04.953Z,95481.00
2018-11-11T20:41:34.127Z,95474.00
2018-11-11T20:44:03.216Z,95489.00
2018-11-11T20:46:32.400Z,95497.00
2018-11-11T20:49:01.470Z,95501.00
2018-11-11T20:51:30.638Z,95497.00
2018-11-11T20:53:59.752Z,95503.00
2018-11-11T20:56:28.975Z,95514.00
2018-11-11T20:58:58.084Z,95524.00
2018-11-11T21:01:27.338Z,95537.00
2018-11-11T21:03:56.478Z,95527.00
2018-11-11T21:06:25.653Z,95531.00
2018-11-11T21:08:54.886Z,95528.00
2018-11-11T21:11:24.002Z,95530.00
2018-11-11T21:13:53.203Z,95528.00
2018-11-11T21:16:22.327Z,95535.00
2018-11-11T21:18:51.494Z,95532.00
2018-11-11T21:21:20.720Z,95533.00
2018-11-11T21:23:49.881Z,95534.00
2018-11-11T21:26:19.073Z,95535.00
2018-11-11T21:28:48.233Z,95534.00
2018-11-11T21:31:17.406Z,95526.00
2018-11-11T21:33:46.616Z,95520.00
2018-11-11T21:36:15.803Z,95526.00
2018-11-11T21:38:44.926Z,95524.00
2018-11-11T21:41:14.054Z,95519.00
2018-11-11T21:43:43.187Z,95515.00
2018-11-11T21:46:12.314Z,95520.00
2018-11-11T21:48:41.540Z,95522.00
2018-11-11T21:51:10.709Z,95518.00
2018-11-11T21:54:04.866Z,95526.00
2018-11-11T21:56:34.066Z,95520.00
2018-11-11T21:59:03.267Z,95515.00
2018-11-11T22:01:32.482Z,95514.00
2018-11-11T22:04:01.699Z,95509.00
2018-11-11T22:06:30.875Z,95506.00
2018-11-11T22:09:00.149Z,95507.00
2018-11-11T22:11:29.273Z,95509.00
2018-11-11T22:13:58.573Z,95510.00
2018-11-11T22:16:27.805Z,95510.00
2018-11-11T22:18:57.014Z,95509.00
2018-11-11T22:21:27.718Z,95503.00
2018-11-11T22:23:56.936Z,95504.00
2018-11-11T22:26:26.130Z,95515.00
2018-11-11T22:28:55.363Z,95508.00
2018-11-11T22:31:24.483Z,95506.00
2018-11-11T22:33:53.556Z,95500.00
2018-11-11T22:36:22.805Z,95509.00
2018-11-11T22:38:51.978Z,95512.00
2018-11-11T22:41:21.274Z,95516.00
2018-11-11T22:43:50.375Z,95510.00
2018-11-11T22:46:19.683Z,95503.00
2018-11-11T22:48:48.810Z,95503.00
2018-11-11T22:51:18.003Z,95508.00
2018-11-11T22:53:47.232Z,95505.00
2018-11-11T22:56:16.487Z,95506.00
2018-11-11T22:58:45.720Z,95512.00
2018-11-11T23:01:21.867Z,95513.00
2018-11-11T23:03:51.366Z,95514.00
2018-11-11T23:06:20.558Z,95517.00
2018-11-11T23:08:49.683Z,95514.00
2018-11-11T23:11:18.896Z,95516.00
2018-11-11T23:13:48.029Z,95518.00
2018-11-11T23:16:17.154Z,95511.00
2018-11-11T23:18:46.290Z,95513.00
2018-11-11T23:21:15.481Z,95509.00
2018-11-11T23:23:44.652Z,95501.00
2018-11-11T23:26:13.842Z,95498.00
2018-11-11T23:28:43.062Z,95511.00
2018-11-11T23:31:12.271Z,95509.00
2018-11-11T23:33:41.522Z,95499.00
2018-11-11T23:36:10.903Z,95500.00
2018-11-11T23:38:40.986Z,95504.00
2018-11-11T23:41:10.968Z,95499.00
2018-11-11T23:43:40.991Z,95509.00
2018-11-11T23:46:11.039Z,95510.00
2018-11-11T23:48:41.114Z,95509.00
2018-11-11T23:51:11.052Z,95517.00
2018-11-11T23:53:41.098Z,95518.00
2018-11-11T23:56:11.174Z,95526.00
2018-11-11T23:58:41.855Z,95518.00
